createdAt,value
2022-09-18T00:00:41.934Z,0
2022-09-18T00:01:59.913Z,0
2022-09-18T00:03:16.974Z,0
2022-09-18T00:04:33.909Z,0
2022-09-18T00:05:50.905Z,0
2022-09-18T00:07:07.937Z,0
2022-09-18T00:08:24.919Z,0
2022-09-18T00:09:42.770Z,0
2022-09-18T00:11:00.481Z,0
2022-09-18T00:12:18.037Z,0
2022-09-18T00:13:34.986Z,0
2022-09-18T00:14:51.949Z,0
2022-09-18T00:16:09.071Z,0
2022-09-18T00:17:25.958Z,0
2022-09-18T00:18:42.953Z,0
2022-09-18T00:19:59.927Z,0
2022-09-18T00:21:16.940Z,0
2022-09-18T00:22:33.975Z,0
2022-09-18T00:23:50.985Z,0
2022-09-18T00:25:07.993Z,0
2022-09-18T00:26:24.943Z,0
2022-09-18T00:27:42.120Z,0
2022-09-18T00:28:58.969Z,0
2022-09-18T00:30:16.226Z,0
2022-09-18T00:31:34.102Z,0
2022-09-18T00:32:51.034Z,0
2022-09-18T00:34:07.954Z,0
2022-09-18T00:35:24.954Z,0
2022-09-18T00:36:42.027Z,0
2022-09-18T00:37:59.009Z,0
2022-09-18T00:39:17.048Z,0
2022-09-18T00:40:34.158Z,0
2022-09-18T00:41:50.985Z,0
2022-09-18T00:43:08.085Z,0
2022-09-18T00:44:24.989Z,0.22
2022-09-18T00:45:42.016Z,0.16
2022-09-18T00:46:59.830Z,0.23
2022-09-18T00:48:17.538Z,0.27
2022-09-18T00:49:35.000Z,0.24
2022-09-18T00:50:52.012Z,0.14
2022-09-18T00:52:08.988Z,0
2022-09-18T00:53:25.962Z,0
2022-09-18T00:54:43.002Z,0
2022-09-18T00:55:59.979Z,0
2022-09-18T00:57:17.494Z,0
2022-09-18T00:58:35.111Z,0
2022-09-18T00:59:52.733Z,0
2022-09-18T01:01:10.081Z,0
2022-09-18T01:02:27.087Z,0
2022-09-18T01:03:44.064Z,0
2022-09-18T01:05:01.022Z,0
2022-09-18T01:06:18.041Z,0
2022-09-18T01:07:35.016Z,0
2022-09-18T01:08:52.003Z,0
2022-09-18T01:10:09.042Z,0
2022-09-18T01:11:26.102Z,0
2022-09-18T01:12:43.863Z,0
2022-09-18T01:14:01.175Z,0
2022-09-18T01:15:18.828Z,0
2022-09-18T01:16:36.841Z,0
2022-09-18T01:17:54.025Z,0
2022-09-18T01:19:11.022Z,0
2022-09-18T01:20:28.035Z,0
2022-09-18T01:21:45.072Z,0
2022-09-18T01:23:03.121Z,0
2022-09-18T01:24:20.050Z,0
2022-09-18T01:25:37.019Z,0
2022-09-18T01:26:54.127Z,0
2022-09-18T01:28:11.027Z,0
2022-09-18T01:29:28.574Z,0.22
2022-09-18T01:30:46.066Z,0
2022-09-18T01:32:03.086Z,0
2022-09-18T01:33:20.037Z,0.29
2022-09-18T01:34:37.058Z,0.34
2022-09-18T01:35:54.069Z,0.28
2022-09-18T01:37:11.864Z,0.41
2022-09-18T01:38:29.060Z,0.4
2022-09-18T01:39:46.046Z,0.35
2022-09-18T01:41:03.105Z,0.36
2022-09-18T01:42:20.093Z,0.23
2022-09-18T01:43:37.054Z,0.26
2022-09-18T01:44:54.162Z,0
2022-09-18T01:46:11.123Z,0
2022-09-18T01:47:28.182Z,0.38
2022-09-18T01:48:45.178Z,0.23
2022-09-18T01:50:02.230Z,0
2022-09-18T01:51:19.045Z,0
2022-09-18T01:52:36.086Z,0.09
2022-09-18T01:53:53.125Z,0
2022-09-18T01:55:10.071Z,0.41
2022-09-18T01:56:27.079Z,0.15
2022-09-18T01:57:44.064Z,0
2022-09-18T01:59:01.113Z,0
2022-09-18T02:00:18.226Z,0.45
2022-09-18T02:01:35.207Z,0.25
2022-09-18T02:02:52.158Z,0.25
2022-09-18T02:04:09.381Z,0.35
2022-09-18T02:05:26.107Z,0.38
2022-09-18T02:06:43.084Z,0.98
2022-09-18T02:08:00.089Z,0.12
2022-09-18T02:09:17.125Z,0.69
2022-09-18T02:10:34.169Z,0.45
2022-09-18T02:11:51.122Z,0.3
2022-09-18T02:13:08.079Z,0.76
2022-09-18T02:14:25.093Z,0.3
2022-09-18T02:15:42.338Z,0.48
2022-09-18T02:16:59.120Z,0.65
2022-09-18T02:18:16.163Z,0.71
2022-09-18T02:19:33.103Z,0.45
2022-09-18T02:20:50.117Z,0.63
2022-09-18T02:22:07.115Z,0.51
2022-09-18T02:23:24.127Z,0.78
2022-09-18T02:24:41.126Z,0.84
2022-09-18T02:25:58.113Z,0.59
2022-09-18T02:27:15.130Z,0.71
2022-09-18T02:28:32.130Z,0.8
2022-09-18T02:29:49.138Z,0.59
2022-09-18T02:31:06.444Z,0.74
2022-09-18T02:32:23.155Z,0.58
2022-09-18T02:33:40.469Z,0.52
2022-09-18T02:34:57.171Z,0.52
2022-09-18T02:36:14.124Z,0.8
2022-09-18T02:37:31.134Z,0.38
2022-09-18T02:38:48.140Z,0.95
2022-09-18T02:40:05.792Z,0.61
2022-09-18T02:41:23.157Z,0.85
2022-09-18T02:42:40.136Z,0.73
2022-09-18T02:43:57.166Z,0.86
2022-09-18T02:45:14.192Z,0.29
2022-09-18T02:46:31.319Z,0.89
2022-09-18T02:47:48.152Z,0.69
2022-09-18T02:49:05.138Z,0.62
2022-09-18T02:50:22.201Z,0.7
2022-09-18T02:51:39.218Z,0.57
2022-09-18T02:52:56.142Z,0.76
2022-09-18T02:54:13.865Z,0.4
2022-09-18T02:55:31.162Z,0.71
2022-09-18T02:56:48.276Z,0.76
2022-09-18T02:58:05.177Z,0.71
2022-09-18T02:59:22.161Z,0.51
2022-09-18T03:00:39.157Z,0.63
2022-09-18T03:01:56.442Z,0.19
2022-09-18T03:03:13.196Z,0.23
2022-09-18T03:04:30.180Z,0.35
2022-09-18T03:05:47.185Z,0.22
2022-09-18T03:07:04.226Z,0.42
2022-09-18T03:08:21.155Z,0.47
2022-09-18T03:09:38.163Z,0.5
2022-09-18T03:10:55.195Z,0.45
2022-09-18T03:12:12.210Z,0.63
2022-09-18T03:13:29.177Z,0.97
2022-09-18T03:14:46.210Z,0.73
2022-09-18T03:16:03.369Z,0.86
2022-09-18T03:17:20.321Z,0.73
2022-09-18T03:18:37.189Z,0.84
2022-09-18T03:19:54.607Z,0.86
2022-09-18T03:21:12.175Z,1.02
2022-09-18T03:22:29.189Z,0.8
2022-09-18T03:23:46.195Z,0.56
2022-09-18T03:25:03.258Z,0.54
2022-09-18T03:26:20.193Z,0.61
2022-09-18T03:27:37.199Z,0.41
2022-09-18T03:28:54.258Z,0.66
2022-09-18T03:30:11.195Z,0.39
2022-09-18T03:31:28.262Z,0.7
2022-09-18T03:32:45.371Z,0.94
2022-09-18T03:34:02.283Z,0.69
2022-09-18T03:35:19.249Z,0.52
2022-09-18T03:36:36.211Z,0.52
2022-09-18T03:37:53.223Z,0.71
2022-09-18T03:39:10.263Z,0.68
2022-09-18T03:40:27.305Z,0.65
2022-09-18T03:41:44.234Z,0.35
2022-09-18T03:43:01.245Z,0.65
2022-09-18T03:44:18.842Z,0.48
2022-09-18T03:45:36.295Z,0.56
2022-09-18T03:46:53.300Z,0.35
2022-09-18T03:48:10.335Z,0.51
2022-09-18T03:49:27.227Z,0.21
2022-09-18T03:50:44.240Z,0.97
2022-09-18T03:52:01.290Z,0.42
2022-09-18T03:53:18.248Z,0.39
2022-09-18T03:54:35.281Z,0.52
2022-09-18T03:55:52.274Z,0.29
2022-09-18T03:57:09.273Z,0.63
2022-09-18T03:58:26.236Z,0.55
2022-09-18T03:59:43.247Z,0.31
2022-09-18T04:01:00.243Z,0.44
2022-09-18T04:02:17.321Z,0.65
2022-09-18T04:03:34.385Z,0.75
2022-09-18T04:04:51.264Z,0.71
2022-09-18T04:06:08.269Z,0.59
2022-09-18T04:07:25.264Z,0.49
2022-09-18T04:08:42.282Z,0.63
2022-09-18T04:09:59.256Z,0.85
2022-09-18T04:11:16.288Z,0.72
2022-09-18T04:12:33.326Z,0.3
2022-09-18T04:13:50.313Z,0.61
2022-09-18T04:15:07.297Z,0.58
2022-09-18T04:16:24.363Z,0.49
2022-09-18T04:17:41.274Z,0.9
2022-09-18T04:18:58.448Z,0.92
2022-09-18T04:20:15.280Z,1.94
2022-09-18T04:21:32.271Z,0.78
2022-09-18T04:22:49.484Z,1.15
2022-09-18T04:24:06.302Z,1
2022-09-18T04:25:23.273Z,1.03
2022-09-18T04:26:40.377Z,0.92
2022-09-18T04:27:57.280Z,1.41
2022-09-18T04:29:14.292Z,0.7
2022-09-18T04:30:32.450Z,0.88
2022-09-18T04:31:49.337Z,0.71
2022-09-18T04:33:06.294Z,0.46
2022-09-18T04:34:23.394Z,0.9
2022-09-18T04:35:40.347Z,0.92
2022-09-18T04:36:57.301Z,0.79
2022-09-18T04:38:14.889Z,0.82
2022-09-18T04:39:32.307Z,0.84
2022-09-18T04:40:49.404Z,1.07
2022-09-18T04:42:06.326Z,0.84
2022-09-18T04:43:23.293Z,1.06
2022-09-18T04:44:40.296Z,0.77
2022-09-18T04:45:57.314Z,0.81
2022-09-18T04:47:14.307Z,0.82
2022-09-18T04:48:31.321Z,0.75
2022-09-18T04:49:48.447Z,0.69
2022-09-18T04:51:05.642Z,0.59
2022-09-18T04:52:22.323Z,0.71
2022-09-18T04:53:39.310Z,0.35
2022-09-18T04:54:56.326Z,0.72
2022-09-18T04:56:13.706Z,0.8
2022-09-18T04:57:31.320Z,0.47
2022-09-18T04:58:48.324Z,0.56
2022-09-18T05:00:05.413Z,0.81
2022-09-18T05:01:22.511Z,0.97
2022-09-18T05:02:39.329Z,0.67
2022-09-18T05:03:56.386Z,0.71
2022-09-18T05:05:13.476Z,0.45
2022-09-18T05:06:30.321Z,0.85
2022-09-18T05:07:47.348Z,0.6
2022-09-18T05:09:04.361Z,0.76
2022-09-18T05:10:21.410Z,0.93
2022-09-18T05:11:38.356Z,0.54
2022-09-18T05:12:55.644Z,0.81
2022-09-18T05:14:12.422Z,0.98
2022-09-18T05:15:29.373Z,0.61
2022-09-18T05:16:46.442Z,0.95
2022-09-18T05:18:05.620Z,0.69
2022-09-18T05:19:20.376Z,0.74
2022-09-18T05:20:38.096Z,0.67
2022-09-18T05:21:54.415Z,0.89
2022-09-18T05:23:11.393Z,1.05
2022-09-18T05:24:28.354Z,0.8
2022-09-18T05:25:45.617Z,0.68
2022-09-18T05:27:02.397Z,1.04
2022-09-18T05:28:20.528Z,0.47
2022-09-18T05:29:37.409Z,1.19
2022-09-18T05:30:54.397Z,0.96
2022-09-18T05:32:11.426Z,0.65
2022-09-18T05:33:28.456Z,0.77
2022-09-18T05:34:45.441Z,1.36
2022-09-18T05:36:02.456Z,0.77
2022-09-18T05:37:19.441Z,0.77
2022-09-18T05:38:36.415Z,1.08
2022-09-18T05:39:53.450Z,0.96
2022-09-18T05:41:10.385Z,1.36
2022-09-18T05:42:27.402Z,1.04
2022-09-18T05:43:44.976Z,1.8
2022-09-18T05:45:02.481Z,1.51
2022-09-18T05:46:20.015Z,1.43
2022-09-18T05:47:37.406Z,1.25
2022-09-18T05:48:54.433Z,1.22
2022-09-18T05:50:11.504Z,1.31
2022-09-18T05:51:28.561Z,1.73
2022-09-18T05:52:45.402Z,1.88
2022-09-18T05:54:02.660Z,1.13
2022-09-18T05:55:19.482Z,0.93
2022-09-18T05:56:36.472Z,0.82
2022-09-18T05:57:53.432Z,0.65
2022-09-18T05:59:10.425Z,0.57
2022-09-18T06:00:27.453Z,0.73
2022-09-18T06:01:47.247Z,0.58
2022-09-18T06:03:02.578Z,0.5
2022-09-18T06:04:19.449Z,0.7
2022-09-18T06:05:36.424Z,0.5
2022-09-18T06:06:53.542Z,0.25
2022-09-18T06:08:10.457Z,0.55
2022-09-18T06:09:27.462Z,0.51
2022-09-18T06:10:44.421Z,0.57
2022-09-18T06:12:01.509Z,0.38
2022-09-18T06:13:18.461Z,0.66
2022-09-18T06:14:35.432Z,0.87
2022-09-18T06:15:52.665Z,0.42
2022-09-18T06:17:09.435Z,0.64
2022-09-18T06:18:26.508Z,0.77
2022-09-18T06:19:43.481Z,0.73
2022-09-18T06:21:00.455Z,0.79
2022-09-18T06:22:17.570Z,1.4
2022-09-18T06:23:34.499Z,0.8
2022-09-18T06:24:51.457Z,0.29
2022-09-18T06:26:11.458Z,0.59
2022-09-18T06:27:25.616Z,0.9
2022-09-18T06:28:42.487Z,1.01
2022-09-18T06:30:00.505Z,0.47
2022-09-18T06:31:17.524Z,0.74
2022-09-18T06:32:35.232Z,0.98
2022-09-18T06:33:52.496Z,0.54
2022-09-18T06:35:10.563Z,0.99
2022-09-18T06:36:27.454Z,0.58
2022-09-18T06:37:44.653Z,0.91
2022-09-18T06:39:01.596Z,0.93
2022-09-18T06:40:18.561Z,0.46
2022-09-18T06:41:35.470Z,0.44
2022-09-18T06:42:52.475Z,0.63
2022-09-18T06:44:10.573Z,0.36
2022-09-18T06:45:27.519Z,0.2
2022-09-18T06:46:44.550Z,0.82
2022-09-18T06:48:01.501Z,0.81
2022-09-18T06:49:18.492Z,0.74
2022-09-18T06:50:35.505Z,0.74
2022-09-18T06:51:52.504Z,1.04
2022-09-18T06:53:12.617Z,1.15
2022-09-18T06:54:26.482Z,0.9
2022-09-18T06:55:43.492Z,0.93
2022-09-18T06:57:00.524Z,0.68
2022-09-18T06:58:17.551Z,1.01
2022-09-18T06:59:34.565Z,1.07
2022-09-18T07:00:51.586Z,0.9
2022-09-18T07:02:08.564Z,0.99
2022-09-18T07:03:25.547Z,0.71
2022-09-18T07:04:42.546Z,0.77
2022-09-18T07:05:59.494Z,1.06
2022-09-18T07:07:16.555Z,1.2
2022-09-18T07:08:33.537Z,1.24
2022-09-18T07:09:50.578Z,1.42
2022-09-18T07:11:07.502Z,0.73
2022-09-18T07:12:25.422Z,0.81
2022-09-18T07:13:42.521Z,0.89
2022-09-18T07:14:59.565Z,0.83
2022-09-18T07:16:16.590Z,1.33
2022-09-18T07:17:33.535Z,1.25
2022-09-18T07:18:50.576Z,1.6
2022-09-18T07:20:07.599Z,0.78
2022-09-18T07:21:24.540Z,0.77
2022-09-18T07:22:45.047Z,1.25
2022-09-18T07:23:58.688Z,0.95
2022-09-18T07:25:15.611Z,0.76
2022-09-18T07:26:32.546Z,0.52
2022-09-18T07:27:49.628Z,0.49
2022-09-18T07:29:09.942Z,0.83
2022-09-18T07:30:23.636Z,0.61
2022-09-18T07:31:40.589Z,1.34
2022-09-18T07:32:57.560Z,1.02
2022-09-18T07:34:15.350Z,0.76
2022-09-18T07:35:32.571Z,0.7
2022-09-18T07:36:50.505Z,0.33
2022-09-18T07:38:07.573Z,0.41
2022-09-18T07:39:24.795Z,0.75
2022-09-18T07:40:41.680Z,0.99
2022-09-18T07:41:58.550Z,0.59
2022-09-18T07:43:15.552Z,0.76
2022-09-18T07:44:32.615Z,0.85
2022-09-18T07:45:49.593Z,0.65
2022-09-18T07:47:06.604Z,0.6
2022-09-18T07:48:23.631Z,1
2022-09-18T07:49:40.572Z,0.56
2022-09-18T07:50:57.745Z,0.51
2022-09-18T07:52:14.616Z,1.02
2022-09-18T07:53:31.597Z,1.07
2022-09-18T07:54:48.770Z,0.89
2022-09-18T07:56:05.650Z,1.2
2022-09-18T07:57:23.923Z,0.81
2022-09-18T07:58:41.616Z,0.81
2022-09-18T07:59:58.603Z,0.86
2022-09-18T08:01:15.614Z,1.08
2022-09-18T08:02:33.222Z,0.95
2022-09-18T08:03:51.162Z,1.13
2022-09-18T08:05:08.701Z,0.97
2022-09-18T08:06:25.903Z,0.96
2022-09-18T08:07:42.648Z,0.58
2022-09-18T08:08:59.674Z,0.65
2022-09-18T08:10:16.758Z,1.35
2022-09-18T08:11:33.590Z,0.43
2022-09-18T08:12:50.608Z,0.98
2022-09-18T08:14:07.632Z,1.35
2022-09-18T08:15:24.607Z,1.05
2022-09-18T08:16:41.723Z,0.75
2022-09-18T08:17:58.621Z,0.76
2022-09-18T08:19:15.658Z,0.29
2022-09-18T08:20:32.643Z,0.83
2022-09-18T08:21:50.034Z,0.67
2022-09-18T08:23:07.614Z,0.24
2022-09-18T08:24:24.614Z,0.73
2022-09-18T08:25:42.528Z,0.95
2022-09-18T08:26:59.811Z,0.51
2022-09-18T08:28:17.035Z,1.03
2022-09-18T08:29:33.629Z,1.04
2022-09-18T08:30:51.418Z,1.15
2022-09-18T08:32:09.911Z,1.19
2022-09-18T08:33:25.639Z,1.09
2022-09-18T08:34:42.680Z,0.84
2022-09-18T08:35:59.710Z,1.08
2022-09-18T08:37:16.677Z,1.02
2022-09-18T08:38:34.349Z,1.11
2022-09-18T08:39:51.777Z,1.48
2022-09-18T08:41:08.770Z,1.04
2022-09-18T08:42:26.219Z,0.65
2022-09-18T08:43:42.708Z,1.24
2022-09-18T08:44:59.651Z,0.75
2022-09-18T08:46:16.721Z,0.72
2022-09-18T08:47:33.662Z,0.88
2022-09-18T08:48:50.792Z,1.04
2022-09-18T08:50:07.722Z,1.84
2022-09-18T08:51:24.689Z,1.49
2022-09-18T08:52:41.726Z,1.11
2022-09-18T08:53:58.664Z,0.98
2022-09-18T08:55:15.646Z,1.3
2022-09-18T08:56:32.793Z,1.71
2022-09-18T08:57:49.736Z,1.59
2022-09-18T08:59:06.681Z,2.59
2022-09-18T09:00:23.686Z,2.82
2022-09-18T09:01:40.797Z,2.14
2022-09-18T09:02:57.710Z,2.22
2022-09-18T09:04:14.672Z,2.24
2022-09-18T09:05:31.701Z,1.66
2022-09-18T09:06:48.741Z,1.59
2022-09-18T09:08:05.683Z,1.8
2022-09-18T09:09:22.691Z,2.63
2022-09-18T09:10:39.730Z,2.41
2022-09-18T09:11:56.812Z,1.67
2022-09-18T09:13:13.705Z,2.04
2022-09-18T09:14:53.153Z,1.81
2022-09-18T09:15:48.001Z,1.51
2022-09-18T09:17:04.704Z,1.18
2022-09-18T09:18:21.715Z,1.96
2022-09-18T09:19:38.739Z,2.29
2022-09-18T09:20:55.767Z,1.84
2022-09-18T09:22:12.701Z,2.29
2022-09-18T09:23:29.716Z,1.46
2022-09-18T09:24:46.719Z,1.93
2022-09-18T09:26:03.761Z,1.48
2022-09-18T09:27:20.946Z,1.28
2022-09-18T09:28:37.747Z,1.62
2022-09-18T09:29:54.787Z,2.19
2022-09-18T09:31:12.289Z,1.59
2022-09-18T09:32:29.756Z,1.69
2022-09-18T09:33:46.802Z,1.7
2022-09-18T09:35:03.762Z,1.8
2022-09-18T09:36:21.061Z,2.89
2022-09-18T09:37:37.741Z,1.82
2022-09-18T09:38:55.081Z,2.09
2022-09-18T09:40:12.961Z,1.89
2022-09-18T09:41:29.734Z,2.22
2022-09-18T09:42:46.956Z,1.71
2022-09-18T09:44:03.953Z,1.88
2022-09-18T09:45:20.929Z,1.53
2022-09-18T09:46:37.831Z,1.55
2022-09-18T09:47:55.074Z,1.88
2022-09-18T09:49:12.706Z,2.51
2022-09-18T09:50:30.549Z,1.32
2022-09-18T09:51:47.749Z,1.68
2022-09-18T09:53:04.768Z,1.83
2022-09-18T09:54:21.747Z,1.63
2022-09-18T09:55:39.049Z,1.51
2022-09-18T09:56:56.081Z,1.95
2022-09-18T10:11:27.674Z,1.65
2022-09-18T10:12:44.505Z,2.01
2022-09-18T10:14:01.522Z,2.19
2022-09-18T10:15:18.897Z,2.29
2022-09-18T10:16:37.622Z,1.99
2022-09-18T10:17:54.535Z,2.7
2022-09-18T10:19:11.534Z,2.06
2022-09-18T10:20:28.522Z,2.5
2022-09-18T10:21:45.604Z,1.63
2022-09-18T10:23:02.580Z,1.65
2022-09-18T10:24:19.635Z,2.65
2022-09-18T10:25:36.756Z,1.68
2022-09-18T10:26:53.695Z,1.79
2022-09-18T10:28:10.538Z,3.31
2022-09-18T10:29:27.634Z,4.12
2022-09-18T10:30:45.014Z,3.11
2022-09-18T10:32:01.575Z,2.32
2022-09-18T10:33:19.548Z,1.97
2022-09-18T10:34:37.777Z,2.41
2022-09-18T10:35:55.655Z,2.79
2022-09-18T10:37:12.867Z,1.38
2022-09-18T10:38:30.214Z,1.63
2022-09-18T10:39:47.606Z,2.95
2022-09-18T10:41:04.613Z,1.24
2022-09-18T10:42:21.658Z,1.1
2022-09-18T10:43:38.642Z,2.47
2022-09-18T10:44:59.261Z,2.64
2022-09-18T10:46:12.662Z,1.37
2022-09-18T10:47:30.255Z,1.35
2022-09-18T10:48:47.555Z,2.07
2022-09-18T10:50:05.258Z,1.56
2022-09-18T10:51:24.586Z,1.55
2022-09-18T10:52:42.914Z,2.45
2022-09-18T10:54:02.086Z,2.3
2022-09-18T10:55:21.258Z,2.55
2022-09-18T10:56:39.999Z,1.93
2022-09-18T10:58:00.089Z,1.95
2022-09-18T10:59:19.098Z,2.32
2022-09-18T11:00:39.006Z,3
2022-09-18T11:02:00.082Z,2.11
2022-09-18T11:03:20.992Z,2.12
2022-09-18T11:04:39.184Z,2.89
2022-09-18T11:05:59.754Z,1.76
2022-09-18T11:07:23.562Z,2.12
